Time;durP1;ratioP1;P1;durP2;ratioP2;P2;SDS_P1;SDS_P2;PMS_P1;PMS_P2;Temp;Humidity;BMP_temperature;BMP_pressure;BME280_temperature;BME280_humidity;BME280_pressure;Samples;Min_cycle;Max_cycle;Signal;HPM_P1;HPM_P2
2021/12/29 00:00:43;;;;;;;;;;;;;;;4.44;80.10;98411.97;4972369;28;20486;-85
2021/12/29 00:03:08;;;;;;;;;;;;;;;4.44;79.83;98410.19;4972772;28;19918;-87
2021/12/29 00:05:33;;;;;;;;;;;;;;;4.46;79.76;98415.38;4973363;28;19973;-86
2021/12/29 00:07:59;;;;;;;;;;;;;;;4.47;79.77;98425.81;4973417;28;19922;-87
2021/12/29 00:10:25;;;;;;;;;;;;;;;4.50;79.62;98428.31;4973462;28;19949;-85
2021/12/29 00:12:52;;;;;;;;;;;;;;;4.52;79.64;98436.13;4973372;28;19922;-85
2021/12/29 00:15:19;;;;;;;;;;;;;;;4.51;79.55;98450.16;4970906;28;20353;-87
2021/12/29 00:17:45;;;;;;;;;;;;;;;4.54;79.82;98453.50;4973307;28;20270;-88
2021/12/29 00:20:12;;;;;;;;;;;;;;;4.54;79.61;98458.75;4973139;28;19922;-85
2021/12/29 00:22:38;;;;;;;;;;;;;;;4.58;79.87;98454.25;4973048;28;20025;-85
2021/12/29 00:25:03;;;;;;;;;;;;;;;4.58;79.50;98458.63;4973144;28;20033;-87
2021/12/29 00:27:29;;;;;;;;;;;;;;;4.59;79.14;98460.34;4973377;28;20285;-88
2021/12/29 00:29:54;;;;;;;;;;;;;;;4.60;79.03;98464.69;4971879;28;19938;-84
2021/12/29 00:32:19;;;;;;;;;;;;;;;4.63;78.93;98475.91;4972294;28;20076;-85
2021/12/29 00:34:44;;;;;;;;;;;;;;;4.61;78.83;98469.88;4973063;28;19929;-87
2021/12/29 00:37:10;;;;;;;;;;;;;;;4.68;79.15;98488.84;4973043;28;19918;-85
2021/12/29 00:39:35;;;;;;;;;;;;;;;4.64;79.01;98476.75;4973158;28;20384;-86
2021/12/29 00:42:01;;;;;;;;;;;;;;;4.64;78.80;98487.25;4972223;28;19914;-87
2021/12/29 00:44:26;;;;;;;;;;;;;;;4.67;78.72;98487.13;4972007;28;19926;-87
2021/12/29 00:46:54;;;;;;;;;;;;;;;4.68;78.60;98491.47;4973087;28;20428;-86
2021/12/29 00:49:20;;;;;;;;;;;;;;;4.70;78.50;98493.09;4972893;28;19922;-86
2021/12/29 00:51:46;;;;;;;;;;;;;;;4.77;78.63;98498.09;4973023;28;20305;-88
2021/12/29 00:54:11;;;;;;;;;;;;;;;4.94;79.65;98502.69;4972202;28;19920;-88
2021/12/29 00:56:38;;;;;;;;;;;;;;;5.03;81.25;98507.56;4971701;28;20304;-88
2021/12/29 04:10:37;;;;;;;;;;;;;;;3.65;95.53;98758.13;5515400;23;19991;-83
2021/12/29 04:13:03;;;;;;;;;;;;;;;3.47;95.18;98753.47;5020344;28;20360;-89
2021/12/29 04:15:30;;;;;;;;;;;;;;;3.32;95.22;98752.16;5020153;28;20000;-88
2021/12/29 04:17:58;;;;;;;;;;;;;;;3.22;95.32;98759.41;5022187;28;20421;-89
2021/12/29 04:23:12;;;;;;;;;;;;;;;2.98;95.52;98760.97;5022472;28;19932;-89
2021/12/29 04:25:38;;;;;;;;;;;;;;;2.98;95.50;98763.59;5020345;28;20296;-88
2021/12/29 04:28:08;;;;;;;;;;;;;;;2.96;95.39;98760.19;5022303;28;19965;-88
2021/12/29 04:30:33;;;;;;;;;;;;;;;2.89;94.98;98762.13;5020518;28;19924;-88
2021/12/29 04:32:58;;;;;;;;;;;;;;;2.75;95.06;98759.03;5021669;28;19924;-83
2021/12/29 04:35:24;;;;;;;;;;;;;;;2.69;95.04;98760.88;5021606;28;20447;-87
2021/12/29 04:37:50;;;;;;;;;;;;;;;2.59;94.57;98769.88;5022127;28;19921;-88
2021/12/29 04:40:15;;;;;;;;;;;;;;;2.60;94.93;98769.00;5020526;28;20036;-88
2021/12/29 04:42:40;;;;;;;;;;;;;;;2.48;94.66;98772.78;5021592;28;20000;-88
2021/12/29 04:45:06;;;;;;;;;;;;;;;2.34;94.58;98791.44;5022144;28;20056;-87
2021/12/29 04:47:32;;;;;;;;;;;;;;;2.32;94.51;98780.16;5004326;28;19928;-87
2021/12/29 04:50:02;;;;;;;;;;;;;;;2.29;94.24;98785.47;5021292;28;19917;-84
2021/12/29 04:52:28;;;;;;;;;;;;;;;2.31;93.40;98802.00;5020338;28;19925;-86
2021/12/29 04:54:54;;;;;;;;;;;;;;;2.21;93.08;98803.09;5019253;28;20364;-88
2021/12/29 04:57:19;;;;;;;;;;;;;;;2.20;93.85;98795.28;5021407;28;19925;-86
2021/12/29 04:59:45;;;;;;;;;;;;;;;2.27;96.43;98799.50;5004077;28;20036;-88
2021/12/29 05:02:11;;;;;;;;;;;;;;;2.40;98.86;98810.50;5022143;28;20659;-88
2021/12/29 05:04:45;;;;;;;;;;;;;;;2.34;98.39;98807.13;5003935;28;19921;-88
2021/12/29 05:09:55;;;;;;;;;;;;;;;2.24;97.76;98813.47;5020662;28;19967;-88
2021/12/29 05:12:20;;;;;;;;;;;;;;;2.20;97.41;98817.06;5025121;28;19922;-88
2021/12/29 05:14:45;;;;;;;;;;;;;;;2.16;97.51;98820.66;5025036;28;19928;-88
2021/12/29 05:17:11;;;;;;;;;;;;;;;2.04;97.01;98813.09;5025501;28;19921;-88
2021/12/29 05:19:36;;;;;;;;;;;;;;;2.01;96.76;98824.50;5025797;28;19925;-87
2021/12/29 05:22:02;;;;;;;;;;;;;;;1.91;96.01;98833.44;5024929;28;20320;-88
2021/12/29 05:24:27;;;;;;;;;;;;;;;1.71;95.52;98831.25;5023902;28;19925;-87
2021/12/29 05:26:53;;;;;;;;;;;;;;;1.75;95.69;98819.84;5025494;28;19922;-87
2021/12/29 05:29:18;;;;;;;;;;;;;;;1.72;95.43;98819.91;5025010;28;20017;-87
2021/12/29 05:31:43;;;;;;;;;;;;;;;1.57;94.92;98811.53;5024619;28;19917;-88
2021/12/29 05:34:08;;;;;;;;;;;;;;;1.65;94.33;98813.13;5024918;28;19921;-88
2021/12/29 05:36:34;;;;;;;;;;;;;;;1.59;93.77;98811.50;5007562;28;20419;-87
2021/12/29 05:38:59;;;;;;;;;;;;;;;1.51;93.76;98803.84;5024737;28;19918;-86
2021/12/29 05:41:24;;;;;;;;;;;;;;;1.43;93.08;98801.38;5023338;28;20000;-86
2021/12/29 08:47:35;;;;;;;;;;;;;;;3.93;86.90;98977.44;5857526;23;20042;-82
2021/12/29 08:50:01;;;;;;;;;;;;;;;4.00;87.07;98969.34;4985593;28;19960;-85
2021/12/29 08:52:26;;;;;;;;;;;;;;;4.04;86.93;98969.25;5005363;28;20391;-84
2021/12/29 08:54:51;;;;;;;;;;;;;;;4.02;86.87;98964.06;4988659;28;19972;-85
2021/12/29 08:57:17;;;;;;;;;;;;;;;4.06;86.67;98978.78;4988847;28;19957;-83
2021/12/29 08:59:42;;;;;;;;;;;;;;;4.05;86.39;98971.81;4988714;28;19921;-85
2021/12/29 09:02:08;;;;;;;;;;;;;;;4.08;86.28;98966.47;5004265;28;19922;-86
2021/12/29 09:04:33;;;;;;;;;;;;;;;4.09;86.13;98968.22;5005814;28;19940;-86
2021/12/29 09:06:59;;;;;;;;;;;;;;;4.11;85.80;98969.03;4988022;28;20368;-86
2021/12/29 09:09:24;;;;;;;;;;;;;;;4.13;85.51;98959.38;5005599;28;19918;-86
2021/12/29 09:11:50;;;;;;;;;;;;;;;4.14;85.43;98968.09;5005402;28;19976;-85
2021/12/29 09:14:16;;;;;;;;;;;;;;;4.17;85.20;98974.09;5005778;28;19924;-85
2021/12/29 09:16:43;;;;;;;;;;;;;;;4.18;84.90;98973.19;5004406;28;20532;-86
2021/12/29 09:19:12;;;;;;;;;;;;;;;4.25;84.95;98978.25;5004478;28;19921;-85
2021/12/29 09:21:39;;;;;;;;;;;;;;;4.25;84.87;98983.50;4988370;28;19918;-86
2021/12/29 09:24:05;;;;;;;;;;;;;;;4.28;84.96;98991.28;5005424;28;19921;-86
2021/12/29 09:26:30;;;;;;;;;;;;;;;4.29;84.83;98982.50;5005351;28;20480;-83
2021/12/29 09:28:55;;;;;;;;;;;;;;;4.29;84.81;98979.88;5005185;28;20007;-86
2021/12/29 09:31:21;;;;;;;;;;;;;;;4.32;84.66;98996.41;5005376;28;19921;-83
2021/12/29 09:33:46;;;;;;;;;;;;;;;4.36;84.42;98989.28;5003932;28;19924;-84
2021/12/29 09:36:12;;;;;;;;;;;;;;;4.34;84.18;98994.56;5005163;28;19922;-84
2021/12/29 09:38:40;;;;;;;;;;;;;;;4.35;84.00;98984.94;5005035;28;20356;-86
2021/12/29 09:41:07;;;;;;;;;;;;;;;4.41;84.05;98990.00;5005199;28;19991;-85
2021/12/29 09:43:32;;;;;;;;;;;;;;;4.43;83.99;98984.69;5004938;28;19964;-86
2021/12/29 09:45:57;;;;;;;;;;;;;;;4.47;83.99;98984.56;5004966;28;19926;-83
2021/12/29 09:48:23;;;;;;;;;;;;;;;4.46;84.06;98990.72;5010544;28;20002;-85
2021/12/29 09:50:49;;;;;;;;;;;;;;;4.49;83.82;98982.75;5024433;28;19961;-85
2021/12/29 09:53:15;;;;;;;;;;;;;;;4.50;83.71;98979.22;5024647;28;19921;-86
2021/12/29 09:55:41;;;;;;;;;;;;;;;4.53;83.74;98979.13;5024361;28;19918;-86
2021/12/29 09:58:07;;;;;;;;;;;;;;;4.55;83.74;98972.06;5024824;28;19921;-85
2021/12/29 10:00:34;;;;;;;;;;;;;;;4.57;83.88;98973.78;5024020;28;19925;-85
2021/12/29 10:03:01;;;;;;;;;;;;;;;4.60;83.92;98961.44;5023440;28;19912;-84
2021/12/29 10:05:27;;;;;;;;;;;;;;;4.62;83.91;98964.00;5006884;28;19922;-86
2021/12/29 10:08:06;;;;;;;;;;;;;;;4.63;84.01;98961.34;5024058;28;19921;-85
2021/12/29 10:10:33;;;;;;;;;;;;;;;4.65;83.92;98959.50;5024608;28;19924;-84
2021/12/29 10:12:59;;;;;;;;;;;;;;;4.68;83.71;98955.94;5024106;28;20396;-84
2021/12/29 10:15:51;;;;;;;;;;;;;;;4.71;83.77;98945.34;5023972;28;20364;-82
2021/12/29 10:18:21;;;;;;;;;;;;;;;4.72;83.89;98942.66;5002358;28;20338;-84
2021/12/29 10:20:49;;;;;;;;;;;;;;;4.76;83.98;98948.66;5023827;28;19917;-85
2021/12/29 10:23:16;;;;;;;;;;;;;;;4.77;83.91;98939.91;5024315;28;20399;-87
2021/12/29 10:25:41;;;;;;;;;;;;;;;4.77;84.04;98934.66;5023857;28;19918;-85
2021/12/29 10:28:17;;;;;;;;;;;;;;;4.80;84.08;98928.44;5023783;28;19975;-86
2021/12/29 10:30:42;;;;;;;;;;;;;;;4.83;84.04;98944.91;5023849;28;19918;-84
2021/12/29 10:33:11;;;;;;;;;;;;;;;4.85;83.96;98947.50;5022344;28;19921;-84
2021/12/29 10:35:36;;;;;;;;;;;;;;;4.83;83.96;98944.91;5023068;28;19983;-84
2021/12/29 10:38:09;;;;;;;;;;;;;;;4.85;83.88;98943.13;5023355;28;20368;-83
2021/12/29 10:40:35;;;;;;;;;;;;;;;4.89;83.76;98939.47;5022804;28;19921;-87
2021/12/29 10:43:01;;;;;;;;;;;;;;;4.93;83.96;98923.63;5023677;28;19924;-86
2021/12/29 10:45:36;;;;;;;;;;;;;;;4.91;83.99;98927.19;5024068;28;20532;-85
2021/12/29 10:48:03;;;;;;;;;;;;;;;4.98;84.23;98921.69;5022071;28;20008;-84
2021/12/29 10:50:29;;;;;;;;;;;;;;;5.00;84.22;98919.91;5023949;28;20261;-85
2021/12/29 10:52:56;;;;;;;;;;;;;;;5.02;84.51;98923.31;5023732;28;19921;-84
2021/12/29 10:55:31;;;;;;;;;;;;;;;5.04;84.44;98942.50;5023463;28;19921;-85
2021/12/29 10:58:02;;;;;;;;;;;;;;;5.06;84.50;98945.94;5022318;28;19918;-86
2021/12/29 11:00:28;;;;;;;;;;;;;;;5.08;84.63;98947.59;5022680;28;20004;-86
2021/12/29 11:02:57;;;;;;;;;;;;;;;5.09;84.76;98944.06;5022140;28;20059;-86
2021/12/29 11:05:22;;;;;;;;;;;;;;;5.13;84.43;98954.47;5023304;28;19917;-86
2021/12/29 11:07:47;;;;;;;;;;;;;;;5.15;84.76;98948.25;5004638;28;19925;-87
2021/12/29 11:10:14;;;;;;;;;;;;;;;5.17;84.85;98946.44;5022890;28;19925;-85
2021/12/29 11:12:50;;;;;;;;;;;;;;;5.20;85.06;98937.56;5022894;28;20003;-84
2021/12/29 11:15:23;;;;;;;;;;;;;;;5.22;84.88;98948.91;5023228;28;19967;-86
2021/12/29 11:17:49;;;;;;;;;;;;;;;5.24;84.76;98947.94;5020547;28;20027;-87
2021/12/29 11:20:19;;;;;;;;;;;;;;;5.26;84.91;98953.13;5023000;28;20012;-84
2021/12/29 11:22:44;;;;;;;;;;;;;;;5.28;84.80;98957.44;5022946;28;19925;-86
2021/12/29 11:25:09;;;;;;;;;;;;;;;5.31;84.87;98955.59;5004969;28;19921;-86
2021/12/29 11:27:35;;;;;;;;;;;;;;;5.32;84.92;98955.56;5023215;28;19940;-86
2021/12/29 11:30:11;;;;;;;;;;;;;;;5.35;85.25;98944.94;5023035;28;19999;-85
2021/12/29 11:32:40;;;;;;;;;;;;;;;5.35;85.23;98931.81;5004186;28;19924;-84
2021/12/29 11:35:13;;;;;;;;;;;;;;;5.40;85.55;98931.66;5022583;28;20015;-84
2021/12/29 11:37:47;;;;;;;;;;;;;;;5.43;85.62;98928.91;5022863;28;19927;-86
2021/12/29 11:40:14;;;;;;;;;;;;;;;5.45;85.45;98937.59;5004025;28;19921;-84
2021/12/29 11:42:40;;;;;;;;;;;;;;;5.44;85.42;98931.50;5021795;28;20419;-84
2021/12/29 11:45:05;;;;;;;;;;;;;;;5.49;85.39;98938.31;5022343;28;19996;-83
2021/12/29 11:47:31;;;;;;;;;;;;;;;5.51;85.52;98937.38;5021514;28;19956;-86
2021/12/29 11:49:56;;;;;;;;;;;;;;;5.53;85.60;98939.94;5004740;28;19921;-84
2021/12/29 11:52:28;;;;;;;;;;;;;;;5.54;85.47;98942.53;5022254;28;20008;-83
2021/12/29 11:55:05;;;;;;;;;;;;;;;5.57;85.54;98945.03;5022887;28;20396;-84
2021/12/29 11:57:35;;;;;;;;;;;;;;;5.58;85.42;98938.00;5022848;28;19917;-83
2021/12/29 12:00:10;;;;;;;;;;;;;;;5.60;85.84;98931.78;5021190;28;20292;-86
2021/12/29 12:02:35;;;;;;;;;;;;;;;5.64;85.92;98935.16;5020593;28;19917;-84
2021/12/29 12:05:00;;;;;;;;;;;;;;;5.67;86.23;98926.31;5022786;28;20253;-83
2021/12/29 12:07:27;;;;;;;;;;;;;;;5.67;86.00;98936.84;5004555;28;20407;-87
2021/12/29 12:09:52;;;;;;;;;;;;;;;5.70;86.01;98937.56;5022113;28;19925;-86
2021/12/29 12:12:19;;;;;;;;;;;;;;;5.72;85.95;98941.00;5022215;28;20372;-84
2021/12/29 12:14:44;;;;;;;;;;;;;;;5.74;85.96;98941.78;5019029;28;20016;-85
2021/12/29 12:17:11;;;;;;;;;;;;;;;5.73;85.85;98944.50;4997296;28;20024;-85
2021/12/29 12:19:36;;;;;;;;;;;;;;;5.76;86.15;98947.88;5019509;28;19921;-87
2021/12/29 12:22:09;;;;;;;;;;;;;;;5.80;86.20;98940.72;5000804;28;19927;-86
2021/12/29 12:24:36;;;;;;;;;;;;;;;5.82;86.21;98929.25;5001118;28;20896;-86
2021/12/29 12:27:06;;;;;;;;;;;;;;;5.82;86.13;98923.09;4999984;28;19921;-89
2021/12/29 12:29:33;;;;;;;;;;;;;;;5.84;86.30;98923.94;5020568;28;19964;-86
2021/12/29 12:31:59;;;;;;;;;;;;;;;5.86;86.22;98927.34;5001018;28;19928;-87
2021/12/29 12:34:24;;;;;;;;;;;;;;;5.89;86.51;98932.50;5017794;28;19924;-84
2021/12/29 12:36:50;;;;;;;;;;;;;;;5.91;86.61;98928.03;5001104;28;19921;-85
2021/12/29 12:39:16;;;;;;;;;;;;;;;5.92;86.76;98927.13;5019782;28;19921;-85
2021/12/29 12:41:44;;;;;;;;;;;;;;;5.96;87.02;98933.13;5003890;28;19921;-89
2021/12/29 12:44:09;;;;;;;;;;;;;;;5.96;86.97;98923.47;5002671;28;19964;-88
2021/12/29 12:46:37;;;;;;;;;;;;;;;5.99;87.16;98923.38;4999278;28;19921;-87
2021/12/29 12:49:20;;;;;;;;;;;;;;;6.02;87.04;98924.19;5015574;28;19929;-87
2021/12/29 12:51:59;;;;;;;;;;;;;;;6.06;87.20;98923.13;5016066;28;19921;-85
2021/12/29 12:54:27;;;;;;;;;;;;;;;6.18;87.51;98926.16;5016345;28;19917;-85
2021/12/29 12:56:53;;;;;;;;;;;;;;;6.25;87.97;98916.25;5001726;28;19921;-84
2021/12/29 12:59:19;;;;;;;;;;;;;;;6.27;88.42;98922.31;5020330;28;19921;-86
2021/12/29 13:01:47;;;;;;;;;;;;;;;6.28;88.97;98928.44;5020132;28;20391;-88
2021/12/29 13:04:15;;;;;;;;;;;;;;;6.24;89.24;98927.69;5021438;28;19928;-86
2021/12/29 13:06:41;;;;;;;;;;;;;;;6.19;89.42;98927.03;5004031;28;19921;-85
2021/12/29 13:09:07;;;;;;;;;;;;;;;6.11;89.25;98922.06;5003572;28;19918;-85
2021/12/29 13:11:35;;;;;;;;;;;;;;;5.93;88.84;98920.94;5019802;28;19917;-87
2021/12/29 13:14:01;;;;;;;;;;;;;;;5.76;88.27;98911.06;5004261;28;19960;-86
2021/12/29 13:16:27;;;;;;;;;;;;;;;5.61;87.67;98922.97;5002521;28;19917;-89
2021/12/29 13:18:53;;;;;;;;;;;;;;;5.42;87.88;98917.53;5002282;28;19956;-89
2021/12/29 13:21:25;;;;;;;;;;;;;;;5.40;88.90;98913.25;5004196;28;19978;-88
2021/12/29 13:23:55;;;;;;;;;;;;;;;5.43;91.07;98918.41;5021294;28;19918;-89
2021/12/29 13:26:20;;;;;;;;;;;;;;;5.54;93.88;98911.00;5013811;28;20306;-85
2021/12/29 13:28:45;;;;;;;;;;;;;;;5.71;96.91;98918.28;5003788;28;19913;-86
2021/12/29 13:31:15;;;;;;;;;;;;;;;5.96;100.00;98922.59;5003904;28;20020;-85
2021/12/29 13:33:42;;;;;;;;;;;;;;;6.18;100.00;98927.94;5023208;28;19970;-87
2021/12/29 13:36:08;;;;;;;;;;;;;;;6.30;100.00;98922.22;5023774;28;19925;-86
2021/12/29 13:38:33;;;;;;;;;;;;;;;6.41;100.00;98923.53;5006943;28;20379;-85
2021/12/29 13:41:03;;;;;;;;;;;;;;;6.51;100.00;98916.97;5025408;28;19928;-85
2021/12/29 13:43:34;;;;;;;;;;;;;;;6.59;100.00;98911.41;5023867;28;19918;-89
2021/12/29 13:46:08;;;;;;;;;;;;;;;6.67;100.00;98923.38;5007281;28;19928;-86
2021/12/29 13:48:35;;;;;;;;;;;;;;;6.73;100.00;98920.47;5022924;28;19932;-85
2021/12/29 13:51:03;;;;;;;;;;;;;;;6.77;100.00;98913.31;5007457;28;19976;-85
2021/12/29 13:53:28;;;;;;;;;;;;;;;6.85;100.00;98898.03;5006454;28;19921;-88
2021/12/29 13:55:55;;;;;;;;;;;;;;;6.88;100.00;98915.50;5024368;28;20019;-86
2021/12/29 13:58:22;;;;;;;;;;;;;;;6.93;100.00;98915.31;5005714;28;19921;-86
2021/12/29 14:00:48;;;;;;;;;;;;;;;6.95;100.00;98914.31;5006924;28;19928;-87
2021/12/29 14:03:13;;;;;;;;;;;;;;;6.99;100.00;98910.66;5023274;28;20283;-86
2021/12/29 14:05:42;;;;;;;;;;;;;;;7.02;100.00;98907.88;5024141;28;20047;-86
2021/12/29 14:08:09;;;;;;;;;;;;;;;7.06;100.00;98909.44;5023120;28;19928;-89
2021/12/29 14:10:35;;;;;;;;;;;;;;;7.09;100.00;98906.69;5023384;28;19927;-89
2021/12/29 14:13:10;;;;;;;;;;;;;;;7.11;100.00;98929.47;5021568;28;19932;-87
2021/12/29 14:15:36;;;;;;;;;;;;;;;7.15;100.00;98924.03;5023606;28;19921;-89
2021/12/29 14:18:10;;;;;;;;;;;;;;;7.16;100.00;98909.91;5005480;28;19921;-88
2021/12/29 14:20:36;;;;;;;;;;;;;;;7.20;100.00;98913.28;5023690;28;19976;-88
2021/12/29 14:23:02;;;;;;;;;;;;;;;7.22;100.00;98912.28;5024468;28;20326;-88
2021/12/29 14:25:33;;;;;;;;;;;;;;;7.14;100.00;98903.00;5023680;28;19948;-88
2021/12/29 14:27:58;;;;;;;;;;;;;;;5.36;100.00;98903.75;5024091;28;19924;-89
2021/12/29 14:30:26;;;;;;;;;;;;;;;4.54;100.00;98911.75;5023940;28;20011;-88
2021/12/29 14:33:01;;;;;;;;;;;;;;;3.99;100.00;98909.09;5021573;28;19913;-88
2021/12/29 14:35:29;;;;;;;;;;;;;;;3.65;98.84;98910.06;5023526;28;19928;-86
2021/12/29 14:37:55;;;;;;;;;;;;;;;3.62;97.73;98910.16;5006352;28;19921;-88
2021/12/29 14:40:29;;;;;;;;;;;;;;;3.39;96.24;98908.19;5005496;28;20020;-89
2021/12/29 14:43:05;;;;;;;;;;;;;;;3.28;95.12;98900.63;5006048;28;20295;-86
2021/12/29 14:45:32;;;;;;;;;;;;;;;3.17;94.17;98902.69;5023692;28;19917;-87
2021/12/29 14:48:04;;;;;;;;;;;;;;;3.02;93.75;98904.81;5004759;28;19980;-87
2021/12/29 14:50:29;;;;;;;;;;;;;;;2.88;93.39;98909.53;5023263;28;19925;-87
2021/12/29 14:52:54;;;;;;;;;;;;;;;2.78;92.57;98902.84;5023930;28;19928;-87
2021/12/29 14:55:21;;;;;;;;;;;;;;;2.69;92.18;98903.91;5006024;28;19918;-88
2021/12/29 14:57:47;;;;;;;;;;;;;;;2.59;91.23;98891.97;5023192;28;19922;-86
2021/12/29 15:00:13;;;;;;;;;;;;;;;2.41;90.71;98883.66;5023704;28;19932;-88
2021/12/29 15:02:39;;;;;;;;;;;;;;;2.40;90.18;98883.72;5004474;28;19921;-86
2021/12/29 15:05:05;;;;;;;;;;;;;;;2.30;89.53;98888.31;5022406;28;19925;-88
2021/12/29 15:07:31;;;;;;;;;;;;;;;2.15;89.31;98900.84;5023050;28;19913;-90
2021/12/29 15:09:57;;;;;;;;;;;;;;;2.02;88.58;98898.53;5005332;28;19925;-87
2021/12/29 15:12:23;;;;;;;;;;;;;;;1.98;88.02;98897.72;5005714;28;20356;-85
2021/12/29 15:14:49;;;;;;;;;;;;;;;1.90;87.74;98892.66;5023408;28;19920;-89
2021/12/29 15:17:14;;;;;;;;;;;;;;;1.87;87.27;98897.97;5002936;28;19964;-87
2021/12/29 15:19:40;;;;;;;;;;;;;;;1.73;86.95;98897.41;5022661;28;19922;-89
2021/12/29 15:22:05;;;;;;;;;;;;;;;1.66;86.59;98901.00;5005953;28;20073;-87
2021/12/29 15:24:30;;;;;;;;;;;;;;;1.55;86.41;98896.88;5022875;28;20352;-88
2021/12/29 15:26:56;;;;;;;;;;;;;;;1.54;86.17;98886.47;5022864;28;20012;-90
2021/12/29 15:29:22;;;;;;;;;;;;;;;1.43;86.27;98876.25;5022814;28;19963;-88
2021/12/29 15:31:48;;;;;;;;;;;;;;;1.45;85.68;98882.28;5021810;28;19922;-87
2021/12/29 15:34:15;;;;;;;;;;;;;;;1.38;85.56;98881.56;5022615;28;19922;-87
2021/12/29 15:36:53;;;;;;;;;;;;;;;1.21;85.58;98889.72;5022384;28;20004;-87
2021/12/29 15:39:19;;;;;;;;;;;;;;;1.29;86.53;98886.09;5009614;28;20339;-86
2021/12/29 15:41:44;;;;;;;;;;;;;;;1.71;88.61;98907.00;5001568;28;19924;-88
2021/12/29 15:44:11;;;;;;;;;;;;;;;2.03;91.90;98910.66;5010948;28;20200;-88
2021/12/29 15:46:36;;;;;;;;;;;;;;;2.31;95.80;98901.34;5001924;28;19925;-86
2021/12/29 15:49:02;;;;;;;;;;;;;;;2.47;97.59;98890.50;5002163;28;20360;-88
2021/12/29 15:51:27;;;;;;;;;;;;;;;2.62;99.32;98894.50;5021864;28;19932;-88
2021/12/29 15:53:53;;;;;;;;;;;;;;;2.63;100.00;98890.97;5002836;28;20008;-87
2021/12/29 15:56:19;;;;;;;;;;;;;;;2.64;100.00;98893.56;5002579;28;20000;-88
2021/12/29 15:58:45;;;;;;;;;;;;;;;2.69;100.00;98885.59;5011770;28;19944;-87
2021/12/29 16:01:10;;;;;;;;;;;;;;;2.74;100.00;98894.19;4995570;28;20568;-87
2021/12/29 16:03:36;;;;;;;;;;;;;;;2.73;100.00;98895.94;5017749;28;20000;-87
2021/12/29 16:06:02;;;;;;;;;;;;;;;2.79;100.00;98896.69;5005077;28;19923;-86
2021/12/29 16:08:27;;;;;;;;;;;;;;;2.85;100.00;98899.16;5021891;28;19921;-87
2021/12/29 16:10:53;;;;;;;;;;;;;;;2.83;100.00;98898.34;5021803;28;19917;-88
2021/12/29 16:13:18;;;;;;;;;;;;;;;2.80;100.00;98906.25;5003844;28;19944;-87
2021/12/29 16:15:46;;;;;;;;;;;;;;;2.86;100.00;98908.72;5011421;28;19921;-87
2021/12/29 16:18:11;;;;;;;;;;;;;;;2.88;100.00;98902.53;5019078;28;19921;-88
2021/12/29 16:20:37;;;;;;;;;;;;;;;3.14;100.00;98908.84;5017432;28;19922;-86
2021/12/29 16:23:03;;;;;;;;;;;;;;;3.11;100.00;98913.31;5019863;28;19917;-87
2021/12/29 16:25:28;;;;;;;;;;;;;;;3.11;100.00;98908.94;5018804;28;19925;-88
2021/12/29 16:27:54;;;;;;;;;;;;;;;3.07;100.00;98897.69;5019377;28;19917;-87
2021/12/29 16:30:20;;;;;;;;;;;;;;;3.12;100.00;98901.94;4994237;28;19922;-87
2021/12/29 16:32:46;;;;;;;;;;;;;;;3.09;100.00;98906.38;5001908;28;19932;-87
2021/12/29 16:35:12;;;;;;;;;;;;;;;3.16;100.00;98914.03;5019113;28;19913;-88
2021/12/29 16:37:38;;;;;;;;;;;;;;;3.12;100.00;98904.56;5018119;28;20392;-88
2021/12/29 16:40:06;;;;;;;;;;;;;;;3.14;100.00;98913.22;5018335;28;19977;-88
2021/12/29 16:42:31;;;;;;;;;;;;;;;3.13;100.00;98903.66;5012967;28;19922;-88
2021/12/29 16:44:56;;;;;;;;;;;;;;;3.17;100.00;98908.75;5001453;28;19921;-88
2021/12/29 16:47:22;;;;;;;;;;;;;;;3.17;100.00;98908.75;5016863;28;19976;-87
2021/12/29 16:49:49;;;;;;;;;;;;;;;3.21;100.00;98906.94;5000121;28;19926;-86
2021/12/29 16:52:15;;;;;;;;;;;;;;;3.18;100.00;98905.25;4999224;28;19925;-88
2021/12/29 16:54:41;;;;;;;;;;;;;;;3.20;100.00;98907.84;5017362;28;20331;-86
2021/12/29 16:57:06;;;;;;;;;;;;;;;3.25;100.00;98900.72;5003021;28;20406;-87
2021/12/29 16:59:31;;;;;;;;;;;;;;;3.23;100.00;98910.38;5018882;28;20016;-86
2021/12/29 17:01:57;;;;;;;;;;;;;;;3.25;100.00;98916.41;5001112;28;19921;-87
2021/12/29 17:04:22;;;;;;;;;;;;;;;3.30;100.00;98908.44;4998628;28;19922;-86
2021/12/29 17:06:47;;;;;;;;;;;;;;;3.33;99.60;98905.75;5022096;28;19937;-87
2021/12/29 17:09:13;;;;;;;;;;;;;;;3.30;98.73;98911.91;5022225;28;20028;-87
2021/12/29 17:11:38;;;;;;;;;;;;;;;3.34;97.88;98921.41;5025419;28;19928;-87
2021/12/29 17:14:10;;;;;;;;;;;;;;;3.35;97.13;98912.66;5005222;28;19987;-86
2021/12/29 17:16:36;;;;;;;;;;;;;;;3.42;96.38;98913.34;5020227;28;19979;-87
2021/12/29 17:19:02;;;;;;;;;;;;;;;3.48;95.44;98922.78;5018040;28;19925;-87
2021/12/29 17:21:27;;;;;;;;;;;;;;;3.44;94.77;98924.63;5012593;28;19921;-87
2021/12/29 17:23:52;;;;;;;;;;;;;;;3.47;93.99;98921.94;5017525;28;19921;-87
2021/12/29 17:26:17;;;;;;;;;;;;;;;3.53;93.47;98934.03;5003958;28;20332;-88
2021/12/29 17:28:43;;;;;;;;;;;;;;;3.49;92.84;98929.75;5004755;28;20269;-85
2021/12/29 17:31:26;;;;;;;;;;;;;;;3.52;92.42;98924.44;5024125;28;19921;-88
2021/12/29 17:33:51;;;;;;;;;;;;;;;3.52;91.80;98919.19;5003609;28;19921;-86
2021/12/29 17:36:17;;;;;;;;;;;;;;;3.52;91.15;98930.53;5020504;28;19936;-87
2021/12/29 17:38:42;;;;;;;;;;;;;;;3.53;90.76;98931.41;5017975;28;19921;-87
2021/12/29 17:41:07;;;;;;;;;;;;;;;3.48;90.46;98939.38;5024729;28;20389;-87
2021/12/29 17:43:32;;;;;;;;;;;;;;;3.49;90.13;98940.22;5007393;28;19964;-87
2021/12/29 17:45:58;;;;;;;;;;;;;;;3.51;90.18;98952.41;5002942;28;19940;-87
2021/12/29 17:48:25;;;;;;;;;;;;;;;3.54;89.82;98947.06;5001696;28;20388;-86
2021/12/29 17:50:50;;;;;;;;;;;;;;;3.56;89.81;98939.19;5004147;28;19924;-88
2021/12/29 17:53:18;;;;;;;;;;;;;;;3.56;89.50;98936.56;5002852;28;20378;-86
2021/12/29 17:55:43;;;;;;;;;;;;;;;3.54;89.26;98933.09;4985367;28;19968;-87
2021/12/29 17:58:09;;;;;;;;;;;;;;;3.62;89.01;98939.84;4985913;28;19961;-86
2021/12/29 18:00:34;;;;;;;;;;;;;;;3.62;88.99;98939.84;5005617;28;20331;-87
2021/12/29 18:03:00;;;;;;;;;;;;;;;3.62;88.75;98946.84;5003924;28;19925;-87
2021/12/29 18:05:25;;;;;;;;;;;;;;;3.64;88.55;98934.56;5004722;28;19968;-88
2021/12/29 18:07:51;;;;;;;;;;;;;;;3.64;88.38;98947.69;5004354;28;19914;-87
2021/12/29 18:10:17;;;;;;;;;;;;;;;3.69;88.26;98958.03;5004610;28;20006;-89
2021/12/29 18:12:43;;;;;;;;;;;;;;;3.71;88.18;98957.06;4984836;28;20412;-87
2021/12/29 18:15:09;;;;;;;;;;;;;;;3.73;88.10;98959.66;5005100;28;19918;-87
2021/12/29 18:17:35;;;;;;;;;;;;;;;3.72;87.68;98968.41;5003272;28;19917;-89
2021/12/29 18:20:00;;;;;;;;;;;;;;;3.70;87.44;98965.84;5004615;28;19975;-88
2021/12/29 18:22:26;;;;;;;;;;;;;;;3.72;87.14;98968.41;4986868;28;20258;-88
2021/12/29 18:24:51;;;;;;;;;;;;;;;3.74;86.95;98966.63;4986620;28;19922;-89
2021/12/29 18:27:17;;;;;;;;;;;;;;;3.78;86.94;98970.84;5004648;28;19924;-87
2021/12/29 18:29:42;;;;;;;;;;;;;;;3.79;86.81;98965.56;5004297;28;19917;-88
2021/12/29 18:32:08;;;;;;;;;;;;;;;3.79;86.61;98973.44;5002619;28;19922;-86
2021/12/29 18:34:33;;;;;;;;;;;;;;;3.79;86.17;98964.72;4986775;28;19921;-87
2021/12/29 18:37:01;;;;;;;;;;;;;;;3.84;86.10;98960.19;4986778;28;20537;-87
2021/12/29 18:39:29;;;;;;;;;;;;;;;3.85;85.86;98963.69;4986532;28;20395;-88
2021/12/29 18:41:54;;;;;;;;;;;;;;;3.88;86.02;98959.22;4986192;28;19918;-87
2021/12/29 18:44:25;;;;;;;;;;;;;;;3.89;85.93;98965.31;4987066;28;19921;-87
2021/12/29 18:46:51;;;;;;;;;;;;;;;3.92;85.87;98967.84;5002277;28;19925;-87
2021/12/29 18:49:16;;;;;;;;;;;;;;;3.94;85.82;98987.00;4986135;28;20250;-88
2021/12/29 18:51:41;;;;;;;;;;;;;;;3.96;85.69;98982.59;4986491;28;19921;-87
2021/12/29 18:54:09;;;;;;;;;;;;;;;3.97;85.46;98994.78;4986138;28;19945;-87
2021/12/29 18:56:37;;;;;;;;;;;;;;;4.03;85.37;98996.38;4962097;28;19922;-87
2021/12/29 18:59:02;;;;;;;;;;;;;;;4.00;85.15;98987.72;4953595;28;20000;-87
2021/12/29 19:01:28;;;;;;;;;;;;;;;4.07;85.11;98990.13;4962745;28;20460;-87
2021/12/29 19:03:55;;;;;;;;;;;;;;;4.05;85.19;98995.41;4960455;28;19953;-88
2021/12/29 19:06:27;;;;;;;;;;;;;;;4.05;85.28;98992.78;4962786;28;19918;-86
2021/12/29 19:08:53;;;;;;;;;;;;;;;4.05;85.29;98992.78;4962406;28;19929;-87
2021/12/29 19:11:18;;;;;;;;;;;;;;;4.09;85.50;98994.44;4945510;28;19930;-87
2021/12/29 19:13:44;;;;;;;;;;;;;;;4.10;85.34;99006.66;4953162;28;19948;-87